createdAt,value
2023-05-23T00:00:58.596Z,17.09
2023-05-23T00:01:58.289Z,17.06
2023-05-23T00:02:58.563Z,17.01
2023-05-23T00:03:58.517Z,16.96
2023-05-23T00:04:58.433Z,16.91
2023-05-23T00:05:58.356Z,16.87
2023-05-23T00:06:58.599Z,16.89
2023-05-23T00:07:58.503Z,16.90
2023-05-23T00:08:58.514Z,16.89
2023-05-23T00:09:58.360Z,16.87
2023-05-23T00:10:58.433Z,16.87
2023-05-23T00:11:58.395Z,16.87
2023-05-23T00:12:58.005Z,16.86
2023-05-23T00:13:58.342Z,16.86
2023-05-23T00:14:58.283Z,16.90
2023-05-23T00:15:58.224Z,16.90
2023-05-23T00:16:58.200Z,16.90
2023-05-23T00:17:58.299Z,16.90
2023-05-23T00:18:58.156Z,16.93
2023-05-23T00:19:58.233Z,16.98
2023-05-23T00:20:58.235Z,16.99
2023-05-23T00:21:58.584Z,16.99
2023-05-23T00:22:58.435Z,16.98
2023-05-23T00:23:58.361Z,16.98
2023-05-23T00:24:58.234Z,16.93
2023-05-23T00:25:58.106Z,16.90
2023-05-23T00:26:58.023Z,16.82
2023-05-23T00:27:58.185Z,16.71
2023-05-23T00:28:58.315Z,16.66
2023-05-23T00:29:58.065Z,16.62
2023-05-23T00:30:58.220Z,16.59
2023-05-23T00:31:58.035Z,16.54
2023-05-23T00:32:57.901Z,16.49
2023-05-23T00:33:57.897Z,16.46
2023-05-23T00:34:58.385Z,16.47
2023-05-23T00:35:57.950Z,16.41
2023-05-23T00:36:58.120Z,16.34
2023-05-23T00:37:58.035Z,16.29
2023-05-23T00:38:57.953Z,16.29
2023-05-23T00:39:58.158Z,16.29
2023-05-23T00:40:58.156Z,16.24
2023-05-23T00:41:57.986Z,16.20
2023-05-23T00:42:57.768Z,16.16
2023-05-23T00:43:58.034Z,16.05
2023-05-23T00:44:57.707Z,15.97
2023-05-23T00:45:57.991Z,15.91
2023-05-23T00:46:57.950Z,15.88
2023-05-23T00:47:57.917Z,15.88
2023-05-23T00:48:57.711Z,15.90
2023-05-23T00:49:57.884Z,15.88
2023-05-23T00:50:57.838Z,15.88
2023-05-23T00:51:58.005Z,15.85
2023-05-23T00:52:57.963Z,15.82
2023-05-23T00:53:57.987Z,15.79
2023-05-23T00:54:57.875Z,15.80
2023-05-23T00:55:57.792Z,15.77
2023-05-23T00:56:57.866Z,15.77
2023-05-23T00:57:58.092Z,15.79
2023-05-23T00:58:57.892Z,15.80
2023-05-23T00:59:57.722Z,15.82
2023-05-23T01:00:57.869Z,15.83
2023-05-23T01:01:57.731Z,15.85
2023-05-23T01:02:57.960Z,15.83
2023-05-23T01:03:57.837Z,15.87
2023-05-23T01:04:57.829Z,15.91
2023-05-23T01:05:57.607Z,15.88
2023-05-23T01:06:57.975Z,15.92
2023-05-23T01:07:57.753Z,15.92
2023-05-23T01:08:57.863Z,15.94
2023-05-23T01:09:57.660Z,15.94
2023-05-23T01:10:57.873Z,15.91
2023-05-23T01:11:57.713Z,15.90
2023-05-23T01:12:57.794Z,15.91
2023-05-23T01:13:57.741Z,15.90
2023-05-23T01:14:57.512Z,15.90
2023-05-23T01:15:59.826Z,15.90
2023-05-23T01:16:57.417Z,15.90
2023-05-23T01:17:57.579Z,15.85
2023-05-23T01:18:57.600Z,15.79
2023-05-23T01:19:57.707Z,15.77
2023-05-23T01:20:57.585Z,15.79
2023-05-23T01:21:57.643Z,15.77
2023-05-23T01:22:57.547Z,15.79
2023-05-23T01:23:57.559Z,15.80
2023-05-23T01:24:57.514Z,15.80
2023-05-23T01:25:57.861Z,15.82
2023-05-23T01:26:57.621Z,15.82
2023-05-23T01:27:57.749Z,15.80
2023-05-23T01:28:57.565Z,15.75
2023-05-23T01:29:57.252Z,15.73
2023-05-23T01:30:57.541Z,15.76
2023-05-23T01:31:57.442Z,15.77
2023-05-23T01:32:57.649Z,15.73
2023-05-23T01:33:57.472Z,15.73
2023-05-23T01:34:57.441Z,15.69
2023-05-23T01:35:57.393Z,15.69
2023-05-23T01:36:57.558Z,15.65
2023-05-23T01:37:57.352Z,15.64
2023-05-23T01:38:57.513Z,15.64
2023-05-23T01:39:56.512Z,15.62
2023-05-23T01:40:57.435Z,15.65
2023-05-23T01:41:57.353Z,15.68
2023-05-23T01:42:57.445Z,15.62
2023-05-23T01:43:57.378Z,15.62
2023-05-23T01:44:57.184Z,15.62
2023-05-23T01:45:57.608Z,15.62
2023-05-23T01:46:57.094Z,15.61
2023-05-23T01:47:57.393Z,15.58
2023-05-23T01:48:57.305Z,15.60
2023-05-23T01:49:57.441Z,15.57
2023-05-23T01:50:57.065Z,15.54
2023-05-23T01:51:57.321Z,15.48
2023-05-23T01:52:57.263Z,15.50
2023-05-23T01:53:57.249Z,15.46
2023-05-23T01:54:57.275Z,15.44
2023-05-23T01:55:57.329Z,15.48
2023-05-23T01:56:57.266Z,15.48
2023-05-23T01:57:57.234Z,15.48
2023-05-23T01:58:57.167Z,15.43
2023-05-23T01:59:57.345Z,15.46
2023-05-23T02:00:57.238Z,15.50
2023-05-23T02:01:56.975Z,15.52
2023-05-23T02:02:57.262Z,15.52
2023-05-23T02:03:57.016Z,15.52
2023-05-23T02:04:57.291Z,15.54
2023-05-23T02:05:57.151Z,15.51
2023-05-23T02:06:57.133Z,15.50
2023-05-23T02:07:57.115Z,15.52
2023-05-23T02:08:57.064Z,15.54
2023-05-23T02:09:57.076Z,15.52
2023-05-23T02:10:57.120Z,15.51
2023-05-23T02:11:56.889Z,15.48
2023-05-23T02:12:57.095Z,15.35
2023-05-23T02:13:56.951Z,15.28
2023-05-23T02:14:57.193Z,15.25
2023-05-23T02:15:57.076Z,15.21
2023-05-23T02:16:57.079Z,15.18
2023-05-23T02:17:56.905Z,15.17
2023-05-23T02:18:56.923Z,15.15
2023-05-23T02:19:56.927Z,15.21
2023-05-23T02:20:56.998Z,15.17
2023-05-23T02:21:57.076Z,15.15
2023-05-23T02:22:56.991Z,15.17
2023-05-23T02:23:56.996Z,15.18
2023-05-23T02:24:56.812Z,15.15
2023-05-23T02:25:57.057Z,15.15
2023-05-23T02:26:57.005Z,15.11
2023-05-23T02:27:56.858Z,15.09
2023-05-23T02:28:57.067Z,15.07
2023-05-23T02:29:56.847Z,15.06
2023-05-23T02:30:57.070Z,15.00
2023-05-23T02:31:56.725Z,14.99
2023-05-23T02:32:57.134Z,14.96
2023-05-23T02:33:56.646Z,14.96
2023-05-23T02:34:57.427Z,14.95
2023-05-23T02:35:56.631Z,14.95
2023-05-23T02:36:56.956Z,14.95
2023-05-23T02:37:56.814Z,14.95
2023-05-23T02:38:56.795Z,14.91
2023-05-23T02:39:56.599Z,14.81
2023-05-23T02:40:56.876Z,14.70
2023-05-23T02:41:56.797Z,14.59
2023-05-23T02:42:56.797Z,14.48
2023-05-23T02:43:56.664Z,14.43
2023-05-23T02:44:56.834Z,14.41
2023-05-23T02:45:56.753Z,14.38
2023-05-23T02:46:56.445Z,14.38
2023-05-23T02:47:56.766Z,14.38
2023-05-23T02:48:56.671Z,14.41
2023-05-23T02:49:56.647Z,14.44
2023-05-23T02:50:56.596Z,14.45
2023-05-23T02:51:56.676Z,14.45
2023-05-23T02:52:56.479Z,14.50
2023-05-23T02:53:56.717Z,14.55
2023-05-23T02:54:56.423Z,14.58
2023-05-23T02:55:56.569Z,14.59
2023-05-23T02:56:56.755Z,14.62
2023-05-23T02:57:56.678Z,14.62
2023-05-23T02:58:56.637Z,14.62
2023-05-23T02:59:56.637Z,14.56
2023-05-23T03:00:56.586Z,14.58
2023-05-23T03:01:56.684Z,14.58
2023-05-23T03:02:56.746Z,14.63
2023-05-23T03:03:56.557Z,14.61
2023-05-23T03:04:56.635Z,14.63
2023-05-23T03:05:56.416Z,14.59
2023-05-23T03:06:56.499Z,14.61
2023-05-23T03:07:56.385Z,14.66
2023-05-23T03:08:56.628Z,14.69
2023-05-23T03:09:56.453Z,14.77
2023-05-23T03:10:56.558Z,14.79
2023-05-23T03:11:56.428Z,14.79
2023-05-23T03:12:56.398Z,14.73
2023-05-23T03:13:56.413Z,14.70
2023-05-23T03:14:56.553Z,14.68
2023-05-23T03:15:56.352Z,14.66
2023-05-23T03:16:56.513Z,14.66
2023-05-23T03:17:56.585Z,14.63
2023-05-23T03:18:56.417Z,14.63
2023-05-23T03:19:56.478Z,14.61
2023-05-23T03:20:56.393Z,14.63
2023-05-23T03:21:56.435Z,14.61
2023-05-23T03:22:56.111Z,14.56
2023-05-23T03:23:56.434Z,14.53
2023-05-23T03:24:56.357Z,14.44
2023-05-23T03:25:56.583Z,14.43
2023-05-23T03:26:56.297Z,14.36
2023-05-23T03:27:56.343Z,14.41
2023-05-23T03:28:56.286Z,14.43
2023-05-23T03:29:56.281Z,14.44
2023-05-23T03:30:56.155Z,14.47
2023-05-23T03:31:56.124Z,14.43
2023-05-23T03:32:56.201Z,14.36
2023-05-23T03:33:55.945Z,14.28
2023-05-23T03:34:56.072Z,14.15
2023-05-23T03:35:55.973Z,14.20
2023-05-23T03:36:56.134Z,14.23
2023-05-23T03:37:55.969Z,14.25
2023-05-23T03:38:56.186Z,14.26
2023-05-23T03:39:55.983Z,14.28
2023-05-23T03:40:56.190Z,14.28
2023-05-23T03:41:56.004Z,14.29
2023-05-23T03:42:56.092Z,14.33
2023-05-23T03:43:56.157Z,14.30
2023-05-23T03:44:56.034Z,14.32
2023-05-23T03:45:56.026Z,14.36
2023-05-23T03:46:56.062Z,14.40
2023-05-23T03:47:55.975Z,14.43
2023-05-23T03:48:55.785Z,14.45
2023-05-23T03:49:56.016Z,14.47
2023-05-23T03:50:55.765Z,14.48
2023-05-23T03:51:55.958Z,14.47
2023-05-23T03:52:55.783Z,14.50
2023-05-23T03:53:55.978Z,14.45
2023-05-23T03:54:55.835Z,14.50
2023-05-23T03:55:56.070Z,14.55
2023-05-23T03:56:55.702Z,14.58
2023-05-23T03:57:55.912Z,14.56
2023-05-23T03:58:55.941Z,14.45
2023-05-23T03:59:55.874Z,14.41
2023-05-23T04:00:55.831Z,14.41
2023-05-23T04:01:55.998Z,14.33
2023-05-23T04:02:55.863Z,14.38
2023-05-23T04:03:55.697Z,14.44
2023-05-23T04:04:55.782Z,14.50
2023-05-23T04:05:55.727Z,14.55
2023-05-23T04:06:55.814Z,14.59
2023-05-23T04:07:55.711Z,14.62
2023-05-23T04:08:55.789Z,14.62
2023-05-23T04:09:55.677Z,14.65
2023-05-23T04:10:55.731Z,14.66
2023-05-23T04:11:55.595Z,14.70
2023-05-23T04:12:55.697Z,14.78
2023-05-23T04:13:55.601Z,14.77
2023-05-23T04:14:55.778Z,14.70
2023-05-23T04:15:55.905Z,14.68
2023-05-23T04:16:55.622Z,14.77
2023-05-23T04:17:55.667Z,14.78
2023-05-23T04:18:55.685Z,14.82
2023-05-23T04:19:55.581Z,14.82
2023-05-23T04:20:55.501Z,14.91
2023-05-23T04:21:55.915Z,14.91
2023-05-23T04:22:55.492Z,14.91
2023-05-23T04:23:55.572Z,14.89
2023-05-23T04:24:55.473Z,14.87
2023-05-23T04:25:55.661Z,14.85
2023-05-23T04:26:55.509Z,14.89
2023-05-23T04:27:55.866Z,14.97
2023-05-23T04:28:55.663Z,14.99
2023-05-23T04:29:55.634Z,15.03
2023-05-23T04:30:55.675Z,15.04
2023-05-23T04:31:55.556Z,15.03
2023-05-23T04:32:55.486Z,14.97
2023-05-23T04:33:55.597Z,14.95
2023-05-23T04:34:55.498Z,14.95
2023-05-23T04:35:55.345Z,14.95
2023-05-23T04:36:55.725Z,14.93
2023-05-23T04:37:55.584Z,14.97
2023-05-23T04:38:55.485Z,15.00
2023-05-23T04:39:56.326Z,15.07
2023-05-23T04:40:55.427Z,15.19
2023-05-23T04:41:55.245Z,15.21
2023-05-23T04:42:55.494Z,15.25
2023-05-23T04:43:55.395Z,15.35
2023-05-23T04:44:55.388Z,15.40
2023-05-23T04:45:56.333Z,15.52
2023-05-23T04:46:55.422Z,15.61
2023-05-23T04:47:56.121Z,15.70
2023-05-23T04:48:55.472Z,15.77
2023-05-23T04:49:55.362Z,15.85
2023-05-23T04:50:55.294Z,15.88
2023-05-23T04:51:55.961Z,15.94
2023-05-23T04:52:55.255Z,16.10
2023-05-23T04:53:55.375Z,16.28
2023-05-23T04:54:55.407Z,16.20
2023-05-23T04:55:55.436Z,16.28
2023-05-23T04:56:55.435Z,16.28
2023-05-23T04:57:55.945Z,16.44
2023-05-23T04:58:54.415Z,16.46
2023-05-23T04:59:55.766Z,16.50
2023-05-23T05:00:56.046Z,16.66
2023-05-23T05:01:56.057Z,16.98
2023-05-23T05:02:54.424Z,17.56
2023-05-23T05:03:55.472Z,18.28
2023-05-23T05:04:54.359Z,19.11
2023-05-23T05:05:55.793Z,19.76
2023-05-23T05:06:54.353Z,20.37
2023-05-23T05:07:55.395Z,20.80
2023-05-23T05:08:54.322Z,21.08
2023-05-23T05:09:57.220Z,21.36
2023-05-23T05:10:55.490Z,21.81
2023-05-23T05:11:56.201Z,21.74
2023-05-23T05:12:54.303Z,22.01
2023-05-23T05:13:55.964Z,21.98
2023-05-23T05:14:55.265Z,22.10
2023-05-23T05:15:55.852Z,21.88
2023-05-23T05:16:55.151Z,22.07
2023-05-23T05:17:54.289Z,22.20
2023-05-23T05:18:55.848Z,22.03
2023-05-23T05:19:55.403Z,22.36
2023-05-23T05:20:55.082Z,22.95
2023-05-23T05:21:54.187Z,23.51
2023-05-23T05:22:55.865Z,23.43
2023-05-23T05:23:55.693Z,23.34
2023-05-23T05:24:54.801Z,23.46
2023-05-23T05:25:54.961Z,24.07
2023-05-23T05:26:54.874Z,24.76
2023-05-23T05:27:55.141Z,25.20
2023-05-23T05:28:54.892Z,25.47
2023-05-23T05:29:54.111Z,25.70
2023-05-23T05:30:54.235Z,25.97
2023-05-23T05:31:55.693Z,26.12
2023-05-23T05:32:54.258Z,26.10
2023-05-23T05:33:55.550Z,25.53
2023-05-23T05:34:55.847Z,25.55
2023-05-23T05:35:55.031Z,25.84
2023-05-23T05:36:54.774Z,25.93
2023-05-23T05:37:54.033Z,25.93
2023-05-23T05:38:54.008Z,25.59
2023-05-23T05:39:55.832Z,24.98
2023-05-23T05:40:53.995Z,23.92
2023-05-23T05:41:56.047Z,23.77
2023-05-23T05:42:55.430Z,24.03
2023-05-23T05:43:54.713Z,24.62
2023-05-23T05:44:54.825Z,24.85
2023-05-23T05:45:54.018Z,25.06
2023-05-23T05:46:55.605Z,25.48
2023-05-23T05:47:54.794Z,25.81
2023-05-23T05:48:53.925Z,25.69
2023-05-23T05:49:54.687Z,25.74
2023-05-23T05:50:53.937Z,25.85
2023-05-23T05:51:55.226Z,25.82
2023-05-23T05:52:55.506Z,25.51
2023-05-23T05:53:53.854Z,25.40
2023-05-23T05:54:55.168Z,25.30
2023-05-23T05:55:54.813Z,25.47
2023-05-23T05:56:53.815Z,25.45
2023-05-23T05:57:55.547Z,25.58
2023-05-23T05:58:54.941Z,25.75
2023-05-23T05:59:53.805Z,25.95
2023-05-23T06:00:54.496Z,25.87
2023-05-23T06:01:53.855Z,26.04
2023-05-23T06:02:54.616Z,26.40
2023-05-23T06:03:54.025Z,26.33
2023-05-23T06:04:55.269Z,26.53
2023-05-23T06:05:54.599Z,26.57
2023-05-23T06:06:53.781Z,26.90
2023-05-23T06:07:54.559Z,26.59
2023-05-23T06:08:54.473Z,26.78
2023-05-23T06:09:53.706Z,26.34
2023-05-23T06:10:54.527Z,26.53
2023-05-23T06:11:54.516Z,26.71
2023-05-23T06:12:53.731Z,26.93
2023-05-23T06:13:55.507Z,26.77
2023-05-23T06:14:54.506Z,27.07
2023-05-23T06:15:54.488Z,26.60
2023-05-23T06:16:54.439Z,26.41
2023-05-23T06:17:54.319Z,26.31
2023-05-23T06:18:53.663Z,26.15
2023-05-23T06:19:55.295Z,25.88
2023-05-23T06:20:54.389Z,26.50
2023-05-23T06:21:54.363Z,26.65
2023-05-23T06:22:55.067Z,26.48
2023-05-23T06:23:54.410Z,26.34
2023-05-23T06:24:53.608Z,26.78
2023-05-23T06:25:54.312Z,26.96
2023-05-23T06:26:54.180Z,26.62
2023-05-23T06:27:54.305Z,26.37
2023-05-23T06:28:54.157Z,26.41
2023-05-23T06:29:54.495Z,26.90
2023-05-23T06:30:54.229Z,26.89
2023-05-23T06:31:54.287Z,26.71
2023-05-23T06:32:53.537Z,26.96
2023-05-23T06:33:55.326Z,27.52
2023-05-23T06:34:54.206Z,27.46
2023-05-23T06:35:55.356Z,26.78
2023-05-23T06:36:54.226Z,26.22
2023-05-23T06:37:53.635Z,26.23
2023-05-23T06:38:53.415Z,26.80
2023-05-23T06:39:54.009Z,27.08
2023-05-23T06:40:53.471Z,27.41
2023-05-23T06:41:54.995Z,27.75
2023-05-23T06:42:54.186Z,26.65
2023-05-23T06:43:54.121Z,26.52
2023-05-23T06:44:54.196Z,26.55
2023-05-23T06:45:53.397Z,27.30
2023-05-23T06:46:54.404Z,28.05
2023-05-23T06:47:54.231Z,28.45
2023-05-23T06:49:06.502Z,28.56
2023-05-23T06:49:54.213Z,29.07
2023-05-23T06:50:54.198Z,29.23
2023-05-23T06:51:54.371Z,28.76
2023-05-23T06:52:53.282Z,29.16
2023-05-23T06:53:53.954Z,29.81
2023-05-23T06:54:53.262Z,29.99
2023-05-23T06:55:54.079Z,30.27
2023-05-23T06:56:54.054Z,30.28
2023-05-23T06:57:54.008Z,30.05
2023-05-23T06:58:53.850Z,29.94
2023-05-23T06:59:54.133Z,29.20
2023-05-23T07:00:53.995Z,28.57
2023-05-23T07:01:54.025Z,28.19
2023-05-23T07:02:53.317Z,27.97
2023-05-23T07:03:53.949Z,27.92
2023-05-23T07:04:53.867Z,28.48
2023-05-23T07:05:53.991Z,29.04
2023-05-23T07:06:53.133Z,29.46
2023-05-23T07:07:53.929Z,30.02
2023-05-23T07:08:54.977Z,29.11
2023-05-23T07:09:53.683Z,28.35
2023-05-23T07:10:53.887Z,27.51
2023-05-23T07:11:53.686Z,27.08
2023-05-23T07:12:53.953Z,27.86
2023-05-23T07:13:53.884Z,28.54
2023-05-23T07:14:53.833Z,28.82
2023-05-23T07:15:53.022Z,28.83
2023-05-23T07:16:54.662Z,29.05
2023-05-23T07:17:53.996Z,28.51
2023-05-23T07:18:53.072Z,28.60
2023-05-23T07:19:54.515Z,28.24
2023-05-23T07:20:53.907Z,28.14
2023-05-23T07:21:52.952Z,28.23
2023-05-23T07:22:54.689Z,28.29
2023-05-23T07:23:53.756Z,27.98
2023-05-23T07:24:52.942Z,27.90
2023-05-23T07:26:54.174Z,27.85
2023-05-23T07:27:53.733Z,27.70
2023-05-23T07:28:54.675Z,27.70
2023-05-23T07:29:52.925Z,27.62
2023-05-23T07:30:54.662Z,27.80
2023-05-23T07:31:54.148Z,27.95
2023-05-23T07:32:52.874Z,28.46
2023-05-23T07:33:56.462Z,29.42
2023-05-23T07:34:53.584Z,30.05
2023-05-23T07:35:53.784Z,30.43
2023-05-23T07:36:53.689Z,30.93
2023-05-23T07:37:53.571Z,30.22
2023-05-23T07:38:52.800Z,30.65
2023-05-23T07:39:55.163Z,31.12
2023-05-23T07:41:06.680Z,31.26
2023-05-23T07:41:53.426Z,31.52
2023-05-23T07:42:52.747Z,31.59
2023-05-23T07:43:53.406Z,30.85
2023-05-23T07:44:52.693Z,30.89
2023-05-23T07:45:54.601Z,31.19
2023-05-23T07:46:54.199Z,31.62
2023-05-23T07:47:53.492Z,32.01
2023-05-23T07:48:52.654Z,32.00
2023-05-23T07:49:53.359Z,32.57
2023-05-23T07:50:52.631Z,32.91
2023-05-23T07:51:54.521Z,32.72
2023-05-23T07:52:53.885Z,33.20
2023-05-23T07:53:52.642Z,33.29
2023-05-23T07:54:54.963Z,32.87
2023-05-23T07:55:53.457Z,32.90
2023-05-23T07:56:53.277Z,32.71
2023-05-23T07:57:53.414Z,32.86
2023-05-23T07:58:53.271Z,32.40
2023-05-23T07:59:53.364Z,32.57
2023-05-23T08:00:53.143Z,32.69
2023-05-23T08:01:54.137Z,32.40
2023-05-23T08:02:53.715Z,32.16
2023-05-23T08:03:53.500Z,32.79
2023-05-23T08:04:53.229Z,33.09
2023-05-23T08:05:52.532Z,32.31
2023-05-23T08:07:05.020Z,32.75
2023-05-23T08:07:53.905Z,33.09
2023-05-23T08:08:52.530Z,33.62
2023-05-23T08:09:54.090Z,34.03
2023-05-23T08:10:53.533Z,34.32
2023-05-23T08:11:53.322Z,33.90
2023-05-23T08:12:53.204Z,33.47
2023-05-23T08:13:52.483Z,33.65
2023-05-23T08:14:53.232Z,33.17
2023-05-23T08:15:53.014Z,33.58
2023-05-23T08:16:53.432Z,33.89
2023-05-23T08:17:53.104Z,34.42
2023-05-23T08:18:53.434Z,34.47
2023-05-23T08:19:52.416Z,34.87
2023-05-23T08:20:53.345Z,35.11
2023-05-23T08:21:53.018Z,34.67
2023-05-23T08:22:53.379Z,34.33
2023-05-23T08:23:53.024Z,33.50
2023-05-23T08:24:53.161Z,32.89
2023-05-23T08:25:52.376Z,32.84
2023-05-23T08:26:53.086Z,33.08
2023-05-23T08:27:53.024Z,33.39
2023-05-23T08:28:52.255Z,33.14
2023-05-23T08:29:53.056Z,32.68
2023-05-23T08:30:52.950Z,32.42
2023-05-23T08:31:53.196Z,32.50
2023-05-23T08:32:52.339Z,32.95
2023-05-23T08:33:53.037Z,33.41
2023-05-23T08:34:52.924Z,33.90
2023-05-23T08:35:53.136Z,34.00
2023-05-23T08:36:52.208Z,34.10
2023-05-23T08:37:53.266Z,34.64
2023-05-23T08:38:53.023Z,34.66
2023-05-23T08:39:53.004Z,35.21
2023-05-23T08:40:52.176Z,34.94
2023-05-23T08:41:53.877Z,34.86
2023-05-23T08:42:52.916Z,34.93
2023-05-23T08:43:52.198Z,34.26
2023-05-23T08:44:52.963Z,34.51
2023-05-23T08:45:52.785Z,33.21
2023-05-23T08:46:52.936Z,32.99
2023-05-23T08:47:52.866Z,34.05
2023-05-23T08:48:52.969Z,34.52
2023-05-23T08:49:52.736Z,34.93
2023-05-23T08:50:52.937Z,35.39
2023-05-23T08:51:52.819Z,35.15
2023-05-23T08:52:52.855Z,34.72
2023-05-23T08:53:53.484Z,35.01
2023-05-23T08:54:52.003Z,35.39
2023-05-23T08:55:52.766Z,35.76
2023-05-23T08:56:51.975Z,35.60
2023-05-23T08:57:52.773Z,35.87
2023-05-23T08:58:52.014Z,35.79
2023-05-23T08:59:53.520Z,35.49
2023-05-23T09:00:52.576Z,35.31
2023-05-23T09:01:52.855Z,35.36
2023-05-23T09:02:52.742Z,34.93
2023-05-23T09:03:52.734Z,34.49
2023-05-23T09:04:52.662Z,34.96
2023-05-23T09:05:52.830Z,35.45
2023-05-23T09:06:51.883Z,35.86
2023-05-23T09:07:52.692Z,35.16
2023-05-23T09:08:51.852Z,35.16
2023-05-23T09:09:53.245Z,35.48
2023-05-23T09:10:52.921Z,35.95
2023-05-23T09:11:52.691Z,35.92
2023-05-23T09:12:52.637Z,35.67
2023-05-23T09:13:52.725Z,35.18
2023-05-23T09:14:52.636Z,34.51
2023-05-23T09:15:52.362Z,34.96
2023-05-23T09:16:52.794Z,35.06
2023-05-23T09:17:52.434Z,35.12
2023-05-23T09:18:52.661Z,35.18
2023-05-23T09:19:52.413Z,35.08
2023-05-23T09:20:51.766Z,35.50
2023-05-23T09:21:53.579Z,35.45
2023-05-23T09:22:52.605Z,35.50
2023-05-23T09:23:52.436Z,36.01
2023-05-23T09:24:52.555Z,36.44
2023-05-23T09:25:52.476Z,36.51
2023-05-23T09:26:52.565Z,36.71
2023-05-23T09:27:52.415Z,35.69
2023-05-23T09:28:52.656Z,36.21
2023-05-23T09:29:51.656Z,36.77
2023-05-23T09:30:53.228Z,36.70
2023-05-23T09:31:52.447Z,36.32
2023-05-23T09:32:52.275Z,36.61
2023-05-23T09:33:52.558Z,36.63
2023-05-23T09:34:52.312Z,36.08
2023-05-23T09:35:52.498Z,36.32
2023-05-23T09:36:52.225Z,36.67
2023-05-23T09:37:52.408Z,37.18
2023-05-23T09:38:52.241Z,37.75
2023-05-23T09:39:52.686Z,37.88
2023-05-23T09:40:52.268Z,37.74
2023-05-23T09:41:52.388Z,37.61
2023-05-23T09:42:52.258Z,37.83
2023-05-23T09:43:52.462Z,37.86
2023-05-23T09:44:51.537Z,38.10
2023-05-23T09:45:52.427Z,38.09
2023-05-23T09:46:52.277Z,37.65
2023-05-23T09:47:52.456Z,37.64
2023-05-23T09:48:51.525Z,37.61
2023-05-23T09:49:53.098Z,37.57
2023-05-23T09:50:52.242Z,37.15
2023-05-23T09:51:52.280Z,36.80
2023-05-23T09:52:52.447Z,37.43
2023-05-23T09:53:52.217Z,36.62
2023-05-23T09:54:51.507Z,36.33
2023-05-23T09:55:52.059Z,36.28
2023-05-23T09:56:52.386Z,36.41
2023-05-23T09:57:52.279Z,36.71
2023-05-23T09:58:52.213Z,36.46
2023-05-23T09:59:52.225Z,36.14
2023-05-23T10:00:52.127Z,36.62
2023-05-23T10:01:52.112Z,36.11
2023-05-23T10:02:52.352Z,36.37
2023-05-23T10:03:52.237Z,35.96
2023-05-23T10:04:52.053Z,35.68
2023-05-23T10:05:52.187Z,35.24
2023-05-23T10:06:51.976Z,34.90
2023-05-23T10:07:51.327Z,35.68
2023-05-23T10:08:51.285Z,35.86
2023-05-23T10:09:52.047Z,36.59
2023-05-23T10:10:52.005Z,36.97
2023-05-23T10:11:52.193Z,36.67
2023-05-23T10:12:51.975Z,36.11
2023-05-23T10:13:52.102Z,35.73
2023-05-23T10:14:52.068Z,35.68
2023-05-23T10:15:52.005Z,35.31
2023-05-23T10:16:51.964Z,34.58
2023-05-23T10:17:51.975Z,33.83
2023-05-23T10:18:52.086Z,32.87
2023-05-23T10:19:51.837Z,32.55
2023-05-23T10:20:51.994Z,32.98
2023-05-23T10:21:51.802Z,33.29
2023-05-23T10:22:52.107Z,33.63
2023-05-23T10:23:51.871Z,33.54
2023-05-23T10:24:52.144Z,33.36
2023-05-23T10:25:51.095Z,33.54
2023-05-23T10:26:51.986Z,33.68
2023-05-23T10:27:54.079Z,33.70
2023-05-23T10:28:51.077Z,33.61
2023-05-23T10:29:51.785Z,33.58
2023-05-23T10:30:51.920Z,33.47
2023-05-23T10:31:51.775Z,33.09
2023-05-23T10:32:51.938Z,32.08
2023-05-23T10:33:51.813Z,31.59
2023-05-23T10:34:51.738Z,31.12
2023-05-23T10:35:51.844Z,31.00
2023-05-23T10:36:51.676Z,30.60
2023-05-23T10:37:51.890Z,30.02
2023-05-23T10:38:51.876Z,30.24
2023-05-23T10:39:50.940Z,29.51
2023-05-23T10:40:51.703Z,28.86
2023-05-23T10:41:51.820Z,28.60
2023-05-23T10:42:50.933Z,28.48
2023-05-23T10:43:51.736Z,28.19
2023-05-23T10:44:51.767Z,27.74
2023-05-23T10:45:51.682Z,27.46
2023-05-23T10:46:51.647Z,27.15
2023-05-23T10:47:51.724Z,26.82
2023-05-23T10:48:51.641Z,26.70
2023-05-23T10:49:50.831Z,26.41
2023-05-23T10:50:52.241Z,26.34
2023-05-23T10:51:51.509Z,26.10
2023-05-23T10:52:52.181Z,26.02
2023-05-23T10:53:51.468Z,25.97
2023-05-23T10:54:52.123Z,26.03
2023-05-23T10:55:51.471Z,25.92
2023-05-23T10:56:50.805Z,25.82
2023-05-23T10:57:51.420Z,25.77
2023-05-23T10:58:50.778Z,25.75
2023-05-23T10:59:50.828Z,25.85
2023-05-23T11:00:51.695Z,26.25
2023-05-23T11:01:50.798Z,26.70
2023-05-23T11:02:50.799Z,26.81
2023-05-23T11:03:54.021Z,26.92
2023-05-23T11:04:50.765Z,26.86
2023-05-23T11:05:51.521Z,26.92
2023-05-23T11:06:50.741Z,26.92
2023-05-23T11:07:51.601Z,27.11
2023-05-23T11:08:50.840Z,27.04
2023-05-23T11:09:51.450Z,26.93
2023-05-23T11:10:50.671Z,27.08
2023-05-23T11:11:51.442Z,27.23
2023-05-23T11:12:50.681Z,27.17
2023-05-23T11:13:51.431Z,27.37
2023-05-23T11:14:52.428Z,27.14
2023-05-23T11:15:51.462Z,27.07
2023-05-23T11:16:51.380Z,26.80
2023-05-23T11:17:51.489Z,26.85
2023-05-23T11:18:51.527Z,26.89
2023-05-23T11:19:51.440Z,27.02
2023-05-23T11:20:53.045Z,27.04
2023-05-23T11:21:51.318Z,27.00
2023-05-23T11:22:51.321Z,26.96
2023-05-23T11:23:51.143Z,27.23
2023-05-23T11:24:51.327Z,27.52
2023-05-23T11:25:51.120Z,27.60
2023-05-23T11:26:52.886Z,27.75
2023-05-23T11:27:51.146Z,27.75
2023-05-23T11:28:51.402Z,27.33
2023-05-23T11:29:50.460Z,27.30
2023-05-23T11:30:51.309Z,27.62
2023-05-23T11:31:51.267Z,27.61
2023-05-23T11:32:50.478Z,27.41
2023-05-23T11:33:51.252Z,27.48
2023-05-23T11:34:51.280Z,27.65
2023-05-23T11:35:50.371Z,27.79
2023-05-23T11:36:52.410Z,27.92
2023-05-23T11:37:51.824Z,28.14
2023-05-23T11:38:50.358Z,28.05
2023-05-23T11:39:51.146Z,27.74
2023-05-23T11:40:51.125Z,27.51
2023-05-23T11:41:50.343Z,27.51
2023-05-23T11:42:54.130Z,27.54
2023-05-23T11:43:51.092Z,27.60
2023-05-23T11:44:51.015Z,27.54
2023-05-23T11:45:50.298Z,27.60
2023-05-23T11:46:51.077Z,27.42
2023-05-23T11:47:50.276Z,27.00
2023-05-23T11:48:52.795Z,27.05
2023-05-23T11:49:51.046Z,27.05
2023-05-23T11:50:50.970Z,27.02
2023-05-23T11:51:51.036Z,26.92
2023-05-23T11:52:51.055Z,26.86
2023-05-23T11:53:50.872Z,26.72
2023-05-23T11:54:52.924Z,26.62
2023-05-23T11:55:50.814Z,26.45
2023-05-23T11:56:50.137Z,26.56
2023-05-23T11:57:50.865Z,26.41
2023-05-23T11:58:51.963Z,26.41
2023-05-23T11:59:51.810Z,26.31
2023-05-23T12:00:52.284Z,26.30
2023-05-23T12:01:50.953Z,26.22
2023-05-23T12:02:50.319Z,26.16
2023-05-23T12:03:50.944Z,26.18
2023-05-23T12:04:50.999Z,26.12
2023-05-23T12:05:50.099Z,26.15
2023-05-23T12:06:50.875Z,26.10
2023-05-23T12:07:50.989Z,25.96
2023-05-23T12:08:50.014Z,26.00
2023-05-23T12:09:51.372Z,25.99
2023-05-23T12:10:50.931Z,26.10
2023-05-23T12:11:50.853Z,26.12
2023-05-23T12:12:50.913Z,26.15
2023-05-23T12:13:52.673Z,26.25
2023-05-23T12:14:49.972Z,26.34
2023-05-23T12:15:52.968Z,26.20
2023-05-23T12:16:50.593Z,26.20
2023-05-23T12:17:50.828Z,26.26
2023-05-23T12:18:50.732Z,26.44
2023-05-23T12:19:51.461Z,26.72
2023-05-23T12:20:51.422Z,26.97
2023-05-23T12:21:49.921Z,27.32
2023-05-23T12:22:50.989Z,27.49
2023-05-23T12:23:49.858Z,27.55
2023-05-23T12:24:50.693Z,27.77
2023-05-23T12:25:49.895Z,27.99
2023-05-23T12:26:50.752Z,28.04
2023-05-23T12:27:50.592Z,27.93
2023-05-23T12:28:50.656Z,27.93
2023-05-23T12:29:50.463Z,27.85
2023-05-23T12:30:50.644Z,27.82
2023-05-23T12:31:50.643Z,27.82
2023-05-23T12:32:51.787Z,27.97
2023-05-23T12:33:50.521Z,27.93
2023-05-23T12:34:50.594Z,27.77
2023-05-23T12:35:49.773Z,27.85
2023-05-23T12:36:57.169Z,27.99
2023-05-23T12:37:50.697Z,28.14
2023-05-23T12:38:50.551Z,27.98
2023-05-23T12:39:49.740Z,27.62
2023-05-23T12:40:50.334Z,27.44
2023-05-23T12:41:50.476Z,27.32
2023-05-23T12:42:50.394Z,27.22
2023-05-23T12:43:50.508Z,27.19
2023-05-23T12:44:50.300Z,27.24
2023-05-23T12:45:50.662Z,27.12
2023-05-23T12:46:50.331Z,26.92
2023-05-23T12:47:52.164Z,26.80
2023-05-23T12:48:51.388Z,26.72
2023-05-23T12:49:50.686Z,26.74
2023-05-23T12:50:50.295Z,26.30
2023-05-23T12:51:50.466Z,26.20
2023-05-23T12:52:50.501Z,26.18
2023-05-23T12:53:50.475Z,26.28